Time;durP1;ratioP1;P1;durP2;ratioP2;P2;SDS_P1;SDS_P2;PMS_P1;PMS_P2;Temp;Humidity;BMP_temperature;BMP_pressure;BME280_temperature;BME280_humidity;BME280_pressure;Samples;Min_cycle;Max_cycle;Signal;HPM_P1;HPM_P2
2022/09/04 05:00:54;;;;;;;8.67;3.23;;;17.10;97.20;;;;;;1728348;28;20217;-72
2022/09/04 05:01:54;;;;;;;7.20;3.63;;;17.10;97.20;;;;;;1728404;28;20217;-72
2022/09/04 05:02:59;;;;;;;5.95;3.60;;;17.10;97.20;;;;;;1728534;28;20614;-72
2022/09/04 05:04:02;;;;;;;3.58;3.08;;;17.10;97.20;;;;;;1728346;28;20327;-71
2022/09/04 05:05:01;;;;;;;3.95;3.65;;;17.10;97.20;;;;;;1728306;28;20208;-72
2022/09/04 05:05:58;;;;;;;4.28;3.97;;;17.10;97.20;;;;;;1728410;28;20643;-71
2022/09/04 05:06:58;;;;;;;6.00;3.28;;;17.10;97.20;;;;;;1728242;28;20893;-72
2022/09/04 05:08:01;;;;;;;4.30;3.28;;;17.10;97.20;;;;;;1728112;28;20209;-72
2022/09/04 05:09:01;;;;;;;3.60;3.30;;;17.10;97.20;;;;;;1728311;28;20204;-71
2022/09/04 05:09:59;;;;;;;5.85;3.70;;;17.10;97.20;;;;;;1731782;28;20207;-72
2022/09/04 05:10:58;;;;;;;4.25;3.30;;;17.10;97.20;;;;;;1735157;28;20191;-72
2022/09/04 05:11:59;;;;;;;5.43;3.50;;;17.10;97.20;;;;;;1735182;28;20208;-71
2022/09/04 05:13:01;;;;;;;3.55;3.13;;;17.10;97.20;;;;;;1735052;28;20291;-71
2022/09/04 05:14:03;;;;;;;3.35;3.05;;;17.10;97.20;;;;;;1735112;28;20211;-72
2022/09/04 05:15:00;;;;;;;3.75;3.38;;;17.10;97.20;;;;;;1735144;28;20231;-72
2022/09/04 05:16:00;;;;;;;4.05;3.47;;;17.10;97.20;;;;;;1735064;28;20207;-71
2022/09/04 05:17:00;;;;;;;3.50;3.20;;;17.10;97.20;;;;;;1734929;28;20231;-72
2022/09/04 05:17:57;;;;;;;3.80;3.40;;;17.10;97.20;;;;;;1734821;28;20214;-72
2022/09/04 05:18:55;;;;;;;3.85;3.53;;;17.10;97.20;;;;;;1735018;28;20549;-72
2022/09/04 05:19:52;;;;;;;4.50;3.22;;;17.10;97.20;;;;;;1732302;28;20666;-72
2022/09/04 05:20:52;;;;;;;3.45;3.17;;;17.10;97.20;;;;;;1728235;28;20687;-71
2022/09/04 05:21:49;;;;;;;3.47;3.17;;;17.10;97.20;;;;;;1728303;28;20224;-71
2022/09/04 05:22:45;;;;;;;3.80;3.50;;;17.20;97.20;;;;;;1728313;28;20204;-71
2022/09/04 05:23:43;;;;;;;3.42;3.13;;;17.20;97.20;;;;;;1728309;28;20702;-71
2022/09/04 05:24:38;;;;;;;3.50;3.20;;;17.20;97.20;;;;;;1728235;28;20683;-72
2022/09/04 05:25:37;;;;;;;3.53;3.22;;;17.20;97.20;;;;;;1728223;28;20208;-71
2022/09/04 05:26:36;;;;;;;3.55;3.25;;;17.20;97.20;;;;;;1728090;28;20236;-72
2022/09/04 05:27:49;;;;;;;4.85;3.30;;;17.20;97.20;;;;;;1727362;28;20567;-71
2022/09/04 05:28:50;;;;;;;3.50;3.20;;;17.20;97.20;;;;;;1728282;28;20201;-71
2022/09/04 05:29:50;;;;;;;3.60;3.30;;;17.20;97.20;;;;;;1729699;28;20574;-72
2022/09/04 05:30:48;;;;;;;5.35;3.40;;;17.20;97.20;;;;;;1734985;28;20238;-71
2022/09/04 05:31:47;;;;;;;4.28;3.00;;;17.20;97.20;;;;;;1735108;28;20204;-72
2022/09/04 05:32:51;;;;;;;3.30;3.00;;;17.20;97.20;;;;;;1735191;28;20203;-72
2022/09/04 05:33:54;;;;;;;5.15;3.30;;;17.20;97.20;;;;;;1735135;28;20208;-71
2022/09/04 05:35:03;;;;;;;3.67;3.20;;;17.20;97.20;;;;;;1735074;28;20278;-72
2022/09/04 05:35:58;;;;;;;3.28;3.08;;;17.20;97.20;;;;;;1734950;28;20581;-71
2022/09/04 05:36:59;;;;;;;3.95;2.88;;;17.20;97.20;;;;;;1734424;28;20219;-71
2022/09/04 05:37:58;;;;;;;3.33;3.08;;;17.20;97.20;;;;;;1727857;28;20668;-71
2022/09/04 05:39:03;;;;;;;3.80;3.50;;;17.20;97.20;;;;;;1728097;28;20201;-72
2022/09/04 05:40:01;;;;;;;3.72;2.95;;;17.20;97.20;;;;;;1728133;28;20208;-71
2022/09/04 05:41:05;;;;;;;6.28;2.92;;;17.30;97.20;;;;;;1728032;28;20224;-71
2022/09/04 05:42:21;;;;;;;3.35;2.78;;;17.30;97.20;;;;;;1728103;28;20211;-74
2022/09/04 05:43:29;;;;;;;3.13;2.92;;;17.30;97.20;;;;;;1714608;28;20468;-73
2022/09/04 05:44:35;;;;;;;3.33;2.80;;;17.30;97.20;;;;;;1728135;28;20656;-74
2022/09/04 05:45:33;;;;;;;3.03;2.83;;;17.30;97.20;;;;;;1728176;28;20621;-73
2022/09/04 05:46:39;;;;;;;4.03;3.22;;;17.30;97.20;;;;;;1728102;28;20235;-71
2022/09/04 05:47:41;;;;;;;4.68;2.90;;;17.30;97.20;;;;;;1729930;28;20674;-71
2022/09/04 05:48:41;;;;;;;3.55;3.30;;;17.30;97.20;;;;;;1727925;28;20204;-72
2022/09/04 05:49:47;;;;;;;3.08;2.78;;;17.40;97.20;;;;;;1727976;28;20236;-71
2022/09/04 05:50:51;;;;;;;3.35;2.63;;;17.40;97.20;;;;;;1728130;28;20212;-72
2022/09/04 05:52:06;;;;;;;3.30;3.00;;;17.40;97.20;;;;;;1728157;28;20204;-71
2022/09/04 05:53:31;;;;;;;3.30;3.10;;;17.40;97.20;;;;;;1728069;28;20208;-71
2022/09/04 05:54:44;;;;;;;3.20;2.92;;;17.40;97.20;;;;;;1708404;28;20205;-71
2022/09/04 05:56:17;;;;;;;3.80;3.50;;;17.50;97.20;;;;;;1728059;28;20258;-71
2022/09/04 05:57:22;;;;;;;3.53;3.00;;;17.50;97.20;;;;;;1714225;28;20206;-71
2022/09/04 05:58:33;;;;;;;4.20;3.90;;;17.50;97.20;;;;;;1734873;28;20200;-72
2022/09/04 05:59:56;;;;;;;3.30;2.95;;;17.50;97.20;;;;;;1734826;28;20204;-72
2022/09/04 06:01:00;;;;;;;6.00;3.22;;;17.50;97.20;;;;;;1729631;28;20627;-72
2022/09/04 06:02:06;;;;;;;4.70;3.30;;;17.60;97.20;;;;;;1734823;28;20207;-72
2022/09/04 06:03:30;;;;;;;4.10;3.22;;;17.60;97.20;;;;;;1734819;28;20199;-72
2022/09/04 06:04:52;;;;;;;3.30;3.10;;;17.60;97.20;;;;;;1734615;28;20200;-71
2022/09/04 06:06:02;;;;;;;3.83;3.53;;;17.60;97.20;;;;;;1728862;28;20211;-72
2022/09/04 06:07:02;;;;;;;3.38;2.80;;;17.60;97.20;;;;;;1734724;28;20824;-72
2022/09/04 06:08:00;;;;;;;3.00;2.80;;;17.70;97.20;;;;;;1727741;28;20205;-72
2022/09/04 06:09:19;;;;;;;3.90;3.60;;;17.70;97.20;;;;;;1727889;28;20200;-72
2022/09/04 06:10:19;;;;;;;3.50;3.20;;;17.70;97.20;;;;;;1728014;28;20575;-71
2022/09/04 06:11:36;;;;;;;4.25;3.40;;;17.70;97.20;;;;;;1727957;28;20196;-72
2022/09/04 06:12:57;;;;;;;5.63;3.50;;;17.70;97.20;;;;;;1727948;28;20201;-71
2022/09/04 06:14:05;;;;;;;4.38;4.07;;;17.70;97.20;;;;;;1727991;28;20211;-72
2022/09/04 06:15:21;;;;;;;3.95;3.75;;;17.70;97.20;;;;;;1727910;28;20208;-72
2022/09/04 06:16:38;;;;;;;4.00;3.70;;;17.70;97.20;;;;;;1724531;28;20194;-71
2022/09/04 06:17:55;;;;;;;5.55;3.35;;;17.70;97.20;;;;;;1731402;28;20204;-72
2022/09/04 06:19:08;;;;;;;4.05;3.67;;;17.80;97.20;;;;;;1713535;28;20198;-72
2022/09/04 06:20:23;;;;;;;4.05;3.75;;;17.80;97.20;;;;;;1734120;28;20211;-72
2022/09/04 06:21:53;;;;;;;3.72;3.45;;;17.80;97.20;;;;;;1734589;28;20220;-72
2022/09/04 06:23:29;;;;;;;4.35;3.20;;;17.90;97.20;;;;;;1734729;28;20215;-72
2022/09/04 06:24:38;;;;;;;5.22;4.30;;;17.90;97.20;;;;;;1713604;28;20700;-71
2022/09/04 06:26:02;;;;;;;5.03;3.65;;;17.90;97.20;;;;;;1728065;28;20204;-71
2022/09/04 06:27:23;;;;;;;3.60;3.30;;;18.00;97.20;;;;;;1734458;28;20236;-71
2022/09/04 06:28:39;;;;;;;4.95;4.03;;;18.00;97.20;;;;;;1727897;28;20614;-71
2022/09/04 06:29:48;;;;;;;3.30;3.00;;;18.00;97.20;;;;;;1727859;28;20208;-71
2022/09/04 06:30:49;;;;;;;5.40;3.50;;;18.00;97.20;;;;;;1727887;28;20568;-71
2022/09/04 06:32:20;;;;;;;4.07;3.78;;;18.00;97.20;;;;;;1727927;28;20570;-71
2022/09/04 06:33:24;;;;;;;3.83;3.53;;;18.10;97.20;;;;;;1727773;28;20280;-71
2022/09/04 06:34:25;;;;;;;4.00;3.70;;;18.10;97.20;;;;;;1727840;28;20227;-72
2022/09/04 06:35:32;;;;;;;3.92;3.63;;;18.10;97.20;;;;;;1727762;28;20204;-71
2022/09/04 06:36:39;;;;;;;4.95;2.92;;;18.10;97.20;;;;;;1727737;28;20288;-72
2022/09/04 06:37:41;;;;;;;3.80;3.25;;;18.10;97.20;;;;;;1730926;28;20224;-72
2022/09/04 06:38:43;;;;;;;4.95;3.42;;;18.20;97.20;;;;;;1734125;28;20204;-71
2022/09/04 06:39:49;;;;;;;3.45;3.25;;;18.20;97.20;;;;;;1734152;28;20215;-72
2022/09/04 06:40:51;;;;;;;5.63;3.92;;;18.20;97.20;;;;;;1734606;28;20334;-72
2022/09/04 06:42:00;;;;;;;6.45;3.47;;;18.20;97.20;;;;;;1734574;28;20230;-72
2022/09/04 06:43:04;;;;;;;3.88;3.45;;;18.30;97.20;;;;;;1734474;28;20215;-72
2022/09/04 06:44:06;;;;;;;3.72;3.42;;;18.30;97.20;;;;;;1734649;28;20207;-71
2022/09/04 06:45:10;;;;;;;4.68;3.50;;;18.40;97.20;;;;;;1734616;28;20204;-71
2022/09/04 06:46:13;;;;;;;3.45;3.25;;;18.40;97.20;;;;;;1734590;28;20204;-72
2022/09/04 06:47:16;;;;;;;3.65;3.45;;;18.40;97.20;;;;;;1734147;28;20215;-71
2022/09/04 06:48:18;;;;;;;3.50;3.20;;;18.50;97.20;;;;;;1727746;28;20196;-71
2022/09/04 06:49:14;;;;;;;3.92;3.53;;;18.50;97.20;;;;;;1727630;28;20212;-72
2022/09/04 06:50:23;;;;;;;4.18;3.88;;;18.60;97.20;;;;;;1727733;28;20207;-72
2022/09/04 06:51:25;;;;;;;3.55;3.30;;;18.60;97.20;;;;;;1727743;28;20235;-71
2022/09/04 06:52:25;;;;;;;3.72;3.40;;;18.70;97.20;;;;;;1727703;28;20196;-72
2022/09/04 06:53:27;;;;;;;5.88;3.58;;;18.70;97.20;;;;;;1727723;28;20582;-71
2022/09/04 06:54:33;;;;;;;6.35;3.50;;;18.80;97.20;;;;;;1727681;28;20201;-72
2022/09/04 06:55:32;;;;;;;4.10;3.78;;;18.80;97.20;;;;;;1727766;28;20266;-72
2022/09/04 06:56:46;;;;;;;3.60;3.30;;;18.80;97.20;;;;;;1727640;28;20659;-72
2022/09/04 06:57:54;;;;;;;3.38;3.00;;;18.90;97.20;;;;;;1731216;28;20196;-71
2022/09/04 06:59:22;;;;;;;3.97;3.58;;;18.90;97.20;;;;;;1768102;27;20579;-73
2022/09/04 07:00:15;;;;;;;3.63;3.30;;;19.00;97.20;;;;;;1768082;28;20197;-73
2022/09/04 07:01:10;;;;;;;3.70;3.40;;;19.00;97.20;;;;;;1768076;27;20188;-73
2022/09/04 07:02:14;;;;;;;3.80;3.50;;;19.00;97.20;;;;;;1768059;27;20201;-73
2022/09/04 07:03:16;;;;;;;4.10;3.80;;;19.10;97.20;;;;;;1768058;28;20193;-73
2022/09/04 07:04:19;;;;;;;4.03;3.33;;;19.10;97.20;;;;;;1768151;27;20192;-73
2022/09/04 07:05:19;;;;;;;4.10;3.72;;;19.10;97.20;;;;;;1768125;27;20197;-74
2022/09/04 07:06:15;;;;;;;3.80;3.45;;;19.20;97.20;;;;;;1767910;28;20205;-73
2022/09/04 07:07:16;;;;;;;3.65;3.35;;;19.20;97.20;;;;;;1767942;27;20655;-73
2022/09/04 07:08:16;;;;;;;3.08;2.85;;;19.20;97.20;;;;;;1761088;28;20212;-73
2022/09/04 07:09:16;;;;;;;3.40;3.20;;;19.20;97.20;;;;;;1760890;28;20263;-73
2022/09/04 07:10:10;;;;;;;3.97;3.67;;;19.20;97.20;;;;;;1760987;28;20212;-73
2022/09/04 07:11:18;;;;;;;3.67;3.38;;;19.20;97.20;;;;;;1760971;28;20667;-73
2022/09/04 07:12:40;;;;;;;3.63;3.20;;;19.30;97.20;;;;;;1760997;28;20202;-74
2022/09/04 07:14:04;;;;;;;5.50;3.30;;;19.30;97.20;;;;;;1747448;28;20198;-74
2022/09/04 07:15:19;;;;;;;3.50;3.00;;;19.30;97.20;;;;;;1760935;28;20271;-73
2022/09/04 07:16:25;;;;;;;3.47;3.28;;;19.40;97.20;;;;;;1766296;28;20196;-73
2022/09/04 07:17:23;;;;;;;3.13;2.92;;;19.40;97.20;;;;;;1767693;27;20203;-73
2022/09/04 07:18:39;;;;;;;3.58;3.28;;;19.40;97.20;;;;;;1767971;27;20565;-73
2022/09/04 07:20:06;;;;;;;6.07;3.30;;;19.40;97.20;;;;;;1765294;28;20222;-73
2022/09/04 07:21:05;;;;;;;3.45;3.00;;;19.50;97.20;;;;;;1767982;27;20204;-73
2022/09/04 07:22:12;;;;;;;3.25;3.05;;;19.50;97.20;;;;;;1768013;27;20189;-73
2022/09/04 07:23:22;;;;;;;3.40;3.10;;;19.50;97.20;;;;;;1768019;27;20197;-73
2022/09/04 07:24:37;;;;;;;4.00;3.70;;;19.60;97.20;;;;;;1767987;27;20257;-74
2022/09/04 07:25:39;;;;;;;3.33;3.13;;;19.60;97.20;;;;;;1767971;27;20226;-73
2022/09/04 07:26:36;;;;;;;5.18;3.67;;;19.70;97.20;;;;;;1760781;28;20222;-73
2022/09/04 07:27:42;;;;;;;4.68;3.00;;;19.70;97.20;;;;;;1760655;28;20213;-73
2022/09/04 07:28:46;;;;;;;3.60;3.30;;;19.70;97.20;;;;;;1760869;28;20728;-73
2022/09/04 07:29:43;;;;;;;3.45;3.15;;;19.80;97.20;;;;;;1760951;28;20732;-73
2022/09/04 07:30:44;;;;;;;3.20;3.00;;;19.80;97.20;;;;;;1760828;28;20276;-74
2022/09/04 07:31:40;;;;;;;3.58;3.25;;;19.90;97.20;;;;;;1760905;28;20539;-73
2022/09/04 07:32:39;;;;;;;6.03;3.20;;;19.90;97.20;;;;;;1760763;28;20190;-74
2022/09/04 07:33:38;;;;;;;3.70;3.13;;;20.00;97.20;;;;;;1760842;28;20847;-73
2022/09/04 07:34:39;;;;;;;3.25;3.00;;;20.00;97.20;;;;;;1760857;28;20575;-73
2022/09/04 07:35:35;;;;;;;3.28;2.90;;;20.10;97.20;;;;;;1760822;28;20210;-74
2022/09/04 07:36:34;;;;;;;3.83;3.03;;;20.10;97.20;;;;;;1760774;28;20858;-74
2022/09/04 07:37:35;;;;;;;3.97;3.05;;;20.20;97.20;;;;;;1760346;28;20212;-73
2022/09/04 07:38:34;;;;;;;3.35;3.15;;;20.20;97.20;;;;;;1760575;28;20212;-73
2022/09/04 07:39:34;;;;;;;4.07;2.70;;;20.30;97.20;;;;;;1760781;28;20205;-73
2022/09/04 07:40:34;;;;;;;4.10;3.80;;;20.30;97.20;;;;;;1760785;28;20197;-73
2022/09/04 07:41:31;;;;;;;6.38;5.70;;;20.30;97.20;;;;;;1760806;28;20903;-73
2022/09/04 07:42:30;;;;;;;8.45;7.75;;;20.40;97.20;;;;;;1760797;28;20197;-73
2022/09/04 07:43:29;;;;;;;3.67;3.38;;;20.40;97.20;;;;;;1760959;28;20212;-73
2022/09/04 07:44:28;;;;;;;5.50;5.00;;;20.40;97.20;;;;;;1760850;28;20229;-74
2022/09/04 07:45:28;;;;;;;4.03;3.70;;;20.50;97.20;;;;;;1760783;28;20334;-73
2022/09/04 07:46:32;;;;;;;5.25;4.72;;;20.50;97.20;;;;;;1766859;28;20197;-73
2022/09/04 07:47:30;;;;;;;4.38;3.70;;;20.60;97.20;;;;;;1767545;27;20249;-74
2022/09/04 07:48:28;;;;;;;3.15;2.95;;;20.60;97.20;;;;;;1767938;27;20617;-73
2022/09/04 07:49:28;;;;;;;2.88;2.60;;;20.70;97.20;;;;;;1767586;27;20225;-73
2022/09/04 07:50:24;;;;;;;3.63;3.33;;;20.70;97.20;;;;;;1767699;27;20199;-73
2022/09/04 07:51:17;;;;;;;2.95;2.75;;;20.70;97.20;;;;;;1767702;27;20204;-73
2022/09/04 07:52:17;;;;;;;3.08;2.88;;;20.80;97.20;;;;;;1767562;27;20201;-73
2022/09/04 07:53:26;;;;;;;3.55;3.22;;;20.80;97.20;;;;;;1765647;28;20281;-74
2022/09/04 07:54:37;;;;;;;2.95;2.75;;;20.90;97.20;;;;;;1766894;28;20197;-74
2022/09/04 07:55:36;;;;;;;2.90;2.70;;;20.90;97.20;;;;;;1765467;28;20196;-73
2022/09/04 07:56:40;;;;;;;3.40;3.10;;;20.90;97.20;;;;;;1765331;28;20220;-73
2022/09/04 07:58:06;;;;;;;3.45;3.15;;;21.00;97.20;;;;;;1765752;28;20703;-73
2022/09/04 07:59:24;;;;;;;3.30;3.00;;;21.00;97.20;;;;;;1761976;27;20227;-74
2022/09/04 08:00:17;;;;;;;2.42;2.22;;;21.00;97.20;;;;;;1766420;28;20572;-73
2022/09/04 08:01:31;;;;;;;4.20;2.67;;;21.00;97.20;;;;;;1767585;27;20604;-74
2022/09/04 08:02:33;;;;;;;2.83;2.55;;;21.00;97.20;;;;;;1767497;28;20205;-73
2022/09/04 08:03:40;;;;;;;2.97;2.78;;;21.00;97.20;;;;;;1764982;28;20185;-74
2022/09/04 08:04:53;;;;;;;2.97;2.30;;;21.00;97.20;;;;;;1765933;28;20557;-74
2022/09/04 08:05:52;;;;;;;3.17;2.55;;;21.00;97.20;;;;;;1764111;28;20199;-74
2022/09/04 08:06:49;;;;;;;2.50;2.30;;;21.00;97.20;;;;;;1764675;28;20215;-74
2022/09/04 08:08:10;;;;;;;2.70;2.50;;;21.00;97.20;;;;;;1767306;27;20194;-73
2022/09/04 08:09:24;;;;;;;2.30;2.10;;;21.10;97.20;;;;;;1750472;28;20201;-73
2022/09/04 08:10:30;;;;;;;2.85;2.33;;;21.10;97.20;;;;;;1761538;28;20197;-74
2022/09/04 08:11:52;;;;;;;2.63;2.10;;;21.10;97.20;;;;;;1762795;28;20276;-74
2022/09/04 08:13:05;;;;;;;2.50;2.30;;;21.10;97.20;;;;;;1760003;28;20197;-74
2022/09/04 08:14:17;;;;;;;2.53;2.33;;;21.20;97.20;;;;;;1761857;28;20636;-74
2022/09/04 08:15:18;;;;;;;2.70;2.50;;;21.20;97.20;;;;;;1760683;28;20616;-74
2022/09/04 08:16:16;;;;;;;2.72;2.55;;;21.20;97.20;;;;;;1760149;28;20200;-74
2022/09/04 08:17:46;;;;;;;3.08;2.30;;;21.20;97.20;;;;;;1760602;28;20196;-74
2022/09/04 08:18:53;;;;;;;2.95;2.67;;;21.20;97.20;;;;;;1740676;28;20206;-74
2022/09/04 08:19:49;;;;;;;2.95;2.35;;;21.20;97.20;;;;;;1757647;28;20308;-74
2022/09/04 08:20:44;;;;;;;2.13;1.98;;;21.30;97.20;;;;;;1762751;28;20193;-74
2022/09/04 08:21:39;;;;;;;2.33;2.15;;;21.30;97.20;;;;;;1762644;28;20242;-74
2022/09/04 08:22:38;;;;;;;2.60;2.40;;;21.40;97.20;;;;;;1762718;28;20197;-73
2022/09/04 08:24:16;;;;;;;2.58;2.22;;;21.40;97.20;;;;;;1760830;28;20276;-73
2022/09/04 08:25:21;;;;;;;3.83;2.20;;;21.50;97.20;;;;;;1760610;28;20196;-73
2022/09/04 08:26:23;;;;;;;3.67;1.98;;;21.60;97.20;;;;;;1760639;28;20189;-73
2022/09/04 08:27:28;;;;;;;3.05;2.33;;;21.60;97.20;;;;;;1761074;28;20202;-73
2022/09/04 08:28:35;;;;;;;2.42;2.22;;;21.70;97.20;;;;;;1762675;28;20203;-73
2022/09/04 08:29:49;;;;;;;2.10;2.00;;;21.80;97.20;;;;;;1760307;28;20232;-73
2022/09/04 08:30:49;;;;;;;2.85;2.47;;;21.80;97.20;;;;;;1762448;28;20206;-73
2022/09/04 08:31:46;;;;;;;3.03;2.30;;;21.80;97.20;;;;;;1762714;28;20193;-73
2022/09/04 08:33:09;;;;;;;2.55;2.35;;;21.90;97.20;;;;;;1762839;28;20702;-73
2022/09/04 08:34:41;;;;;;;3.05;2.20;;;21.90;97.20;;;;;;1756299;28;20245;-73
2022/09/04 08:35:33;;;;;;;2.85;2.50;;;22.00;97.20;;;;;;1743283;28;20196;-73
2022/09/04 08:36:31;;;;;;;2.95;2.70;;;22.00;97.20;;;;;;1761536;28;20622;-73
2022/09/04 08:37:26;;;;;;;2.80;2.60;;;22.00;97.20;;;;;;1762387;28;20201;-73
2022/09/04 08:38:34;;;;;;;2.20;2.10;;;22.00;97.20;;;;;;1762618;27;20200;-73
2022/09/04 08:39:33;;;;;;;2.30;2.10;;;22.00;97.20;;;;;;1760124;28;20212;-73
2022/09/04 08:41:10;;;;;;;2.03;1.92;;;22.10;97.20;;;;;;1760004;28;20193;-73
2022/09/04 08:42:42;;;;;;;2.10;1.80;;;22.10;97.20;;;;;;1747500;28;20199;-73
2022/09/04 08:43:58;;;;;;;2.92;2.22;;;22.20;97.20;;;;;;1752453;28;20202;-72
2022/09/04 08:45:27;;;;;;;3.47;2.45;;;22.20;97.20;;;;;;1760656;28;20193;-73
2022/09/04 08:46:51;;;;;;;2.35;2.22;;;22.20;97.20;;;;;;1761110;28;20193;-72
2022/09/04 08:48:20;;;;;;;3.40;2.38;;;22.20;97.20;;;;;;1762111;28;20193;-72
2022/09/04 08:49:45;;;;;;;2.55;1.88;;;22.20;97.20;;;;;;1760810;28;20197;-72
2022/09/04 08:51:05;;;;;;;2.53;2.33;;;22.20;97.20;;;;;;1761531;28;20193;-72
2022/09/04 08:52:17;;;;;;;2.00;1.90;;;22.20;97.20;;;;;;1761768;28;20241;-75
2022/09/04 08:53:40;;;;;;;2.92;2.10;;;22.20;97.20;;;;;;1754132;27;20860;-75
2022/09/04 08:54:57;;;;;;;1.80;1.60;;;22.20;97.20;;;;;;1760951;28;20201;-72
2022/09/04 08:56:02;;;;;;;1.60;1.50;;;22.20;97.20;;;;;;1759687;28;20672;-72
2022/09/04 08:57:14;;;;;;;2.42;1.75;;;22.20;97.20;;;;;;1760413;28;20213;-72
2022/09/04 08:58:47;;;;;;;1.77;1.67;;;22.20;97.20;;;;;;1754590;27;20201;-72
2022/09/04 09:00:06;;;;;;;2.10;2.00;;;22.30;97.20;;;;;;1739404;28;20202;-72
2022/09/04 09:01:30;;;;;;;1.75;1.65;;;22.40;97.20;;;;;;1755850;28;20194;-72
2022/09/04 09:02:52;;;;;;;3.15;1.90;;;22.50;97.20;;;;;;1760506;28;20567;-73
2022/09/04 09:04:07;;;;;;;2.90;2.50;;;22.50;97.20;;;;;;1759413;28;20563;-72
2022/09/04 09:05:24;;;;;;;2.40;2.20;;;22.60;97.20;;;;;;1762429;28;20235;-72
2022/09/04 09:06:51;;;;;;;1.77;1.67;;;22.80;97.20;;;;;;1759469;28;20193;-72
2022/09/04 09:08:05;;;;;;;2.10;1.90;;;22.90;97.20;;;;;;1762263;28;20679;-72
2022/09/04 09:09:33;;;;;;;2.85;2.65;;;23.10;97.20;;;;;;1757396;27;20519;-73
2022/09/04 09:11:02;;;;;;;1.80;1.70;;;23.20;97.20;;;;;;1761491;28;20200;-73
2022/09/04 09:12:30;;;;;;;1.80;1.70;;;23.30;97.20;;;;;;1759912;28;20201;-73
2022/09/04 09:13:48;;;;;;;2.17;1.98;;;23.50;97.20;;;;;;1761055;28;20201;-73
2022/09/04 09:15:06;;;;;;;3.05;1.90;;;23.70;97.20;;;;;;1760769;28;20193;-73
2022/09/04 09:16:22;;;;;;;3.28;2.20;;;23.80;97.20;;;;;;1739944;28;20211;-72
2022/09/04 09:17:15;;;;;;;1.92;1.42;;;23.90;97.20;;;;;;1758361;28;20189;-72
2022/09/04 09:18:25;;;;;;;1.60;1.38;;;23.90;97.20;;;;;;1762187;28;20197;-72
2022/09/04 09:19:32;;;;;;;1.55;1.45;;;24.00;97.20;;;;;;1760289;28;20221;-73
2022/09/04 09:20:27;;;;;;;2.65;1.40;;;24.00;97.20;;;;;;1761336;28;20189;-73
2022/09/04 09:21:34;;;;;;;1.30;1.20;;;24.00;97.20;;;;;;1762099;28;20571;-72
2022/09/04 09:22:37;;;;;;;4.55;1.75;;;24.00;97.20;;;;;;1761103;28;20204;-73
2022/09/04 09:23:40;;;;;;;2.22;1.83;;;24.10;97.20;;;;;;1762166;28;20387;-72
2022/09/04 09:25:03;;;;;;;1.50;1.40;;;24.10;97.20;;;;;;1761559;28;20193;-72
2022/09/04 09:26:08;;;;;;;1.95;1.80;;;24.20;97.20;;;;;;1760016;28;20658;-73
2022/09/04 09:27:16;;;;;;;3.05;1.65;;;24.30;97.20;;;;;;1760632;28;20202;-73
2022/09/04 09:28:34;;;;;;;1.70;1.60;;;24.30;97.20;;;;;;1761619;28;20193;-73
2022/09/04 09:29:43;;;;;;;3.97;1.77;;;24.40;97.20;;;;;;1761533;28;20201;-73
2022/09/04 09:30:50;;;;;;;2.42;2.20;;;24.50;97.20;;;;;;1757797;28;20204;-73
2022/09/04 09:32:30;;;;;;;1.63;1.52;;;24.60;97.20;;;;;;1762438;28;20250;-73
2022/09/04 09:33:53;;;;;;;2.63;2.42;;;24.70;97.20;;;;;;1762444;28;20570;-73
2022/09/04 09:35:23;;;;;;;1.95;1.70;;;24.80;97.20;;;;;;1761747;28;20629;-73
2022/09/04 09:36:37;;;;;;;1.80;1.70;;;24.90;97.20;;;;;;1762085;28;20206;-73
2022/09/04 09:38:01;;;;;;;1.50;1.40;;;24.90;97.20;;;;;;1760047;28;20193;-73
2022/09/04 09:39:25;;;;;;;2.13;1.95;;;24.90;97.20;;;;;;1760855;28;20212;-73
2022/09/04 09:40:41;;;;;;;2.55;2.10;;;25.00;97.20;;;;;;1761386;28;20189;-73
2022/09/04 09:42:15;;;;;;;2.58;1.95;;;25.00;97.20;;;;;;1760862;28;20203;-73
2022/09/04 09:43:28;;;;;;;1.67;1.58;;;25.10;97.20;;;;;;1760944;28;20197;-73
2022/09/04 09:44:59;;;;;;;1.88;1.67;;;25.20;97.20;;;;;;1758166;28;20193;-72
2022/09/04 09:46:10;;;;;;;4.70;2.00;;;25.30;97.20;;;;;;1761155;28;20200;-72
2022/09/04 09:47:45;;;;;;;2.13;1.58;;;25.40;97.20;;;;;;1759923;28;20711;-72
2022/09/04 09:49:06;;;;;;;2.25;2.10;;;25.50;97.20;;;;;;1761958;28;20653;-72
2022/09/04 09:50:19;;;;;;;2.13;1.80;;;25.60;97.20;;;;;;1759429;28;20193;-72
2022/09/04 09:51:47;;;;;;;1.95;1.80;;;25.70;97.20;;;;;;1761055;28;20608;-75
2022/09/04 09:53:17;;;;;;;1.70;1.60;;;25.70;97.20;;;;;;1759434;28;20194;-74
2022/09/04 09:54:55;;;;;;;1.60;1.50;;;25.70;97.20;;;;;;1760794;28;20622;-72
2022/09/04 09:56:06;;;;;;;2.05;1.85;;;25.80;97.20;;;;;;1760546;28;20219;-72
2022/09/04 09:57:26;;;;;;;2.47;1.73;;;25.70;97.20;;;;;;1759307;28;20193;-72
2022/09/04 09:58:53;;;;;;;1.85;1.60;;;25.70;97.20;;;;;;1761807;28;20221;-72
2022/09/04 10:00:04;;;;;;;2.05;1.48;;;25.60;97.20;;;;;;1751530;28;20224;-72
2022/09/04 10:01:09;;;;;;;1.60;1.48;;;25.50;97.20;;;;;;1761721;28;20195;-74
2022/09/04 10:02:37;;;;;;;2.42;1.67;;;25.50;97.20;;;;;;1759763;28;20201;-72
2022/09/04 10:04:10;;;;;;;1.40;1.30;;;25.40;97.20;;;;;;1760725;28;20238;-74
2022/09/04 10:05:31;;;;;;;1.40;1.30;;;25.30;97.20;;;;;;1760953;28;20212;-75
2022/09/04 10:06:59;;;;;;;3.30;1.40;;;25.20;97.20;;;;;;1759003;28;20679;-74
2022/09/04 10:08:18;;;;;;;1.30;1.10;;;25.20;97.20;;;;;;1760546;28;20200;-73
2022/09/04 10:09:44;;;;;;;2.25;1.50;;;25.20;97.20;;;;;;1760802;28;20207;-73
2022/09/04 10:11:32;;;;;;;1.70;1.45;;;25.30;97.20;;;;;;1761669;28;20552;-73
2022/09/04 10:12:53;;;;;;;1.30;1.20;;;25.40;97.20;;;;;;1723844;28;20209;-73
2022/09/04 10:14:21;;;;;;;1.90;1.80;;;25.50;97.20;;;;;;1725465;28;20629;-72
2022/09/04 10:15:48;;;;;;;1.77;1.67;;;25.60;97.20;;;;;;1746892;28;20195;-72
2022/09/04 10:17:27;;;;;;;2.45;1.70;;;25.70;97.20;;;;;;1759433;28;20321;-73
2022/09/04 10:18:58;;;;;;;1.58;1.48;;;25.90;97.20;;;;;;1737604;28;20685;-72
2022/09/04 10:20:19;;;;;;;1.55;1.45;;;25.90;97.20;;;;;;1740072;28;20222;-73
2022/09/04 10:21:30;;;;;;;1.70;1.60;;;26.00;97.20;;;;;;1760812;28;20186;-74
2022/09/04 10:22:55;;;;;;;1.80;1.70;;;26.00;97.20;;;;;;1759635;28;20250;-74
2022/09/04 10:24:20;;;;;;;2.42;1.92;;;26.10;97.20;;;;;;1756751;28;20350;-75
2022/09/04 10:25:42;;;;;;;1.92;1.83;;;26.20;97.20;;;;;;1761096;28;20652;-75
2022/09/04 10:27:19;;;;;;;1.98;1.70;;;26.30;97.20;;;;;;1761217;28;20209;-74
2022/09/04 10:28:58;;;;;;;2.00;1.80;;;26.40;97.20;;;;;;1726483;28;20208;-74
2022/09/04 10:30:00;;;;;;;2.40;1.80;;;26.50;97.20;;;;;;1729149;28;20223;-74
2022/09/04 10:31:18;;;;;;;1.83;1.63;;;26.60;97.20;;;;;;1758154;28;20221;-74
2022/09/04 10:32:38;;;;;;;2.10;1.90;;;26.60;97.20;;;;;;1760716;28;20583;-74
2022/09/04 10:33:41;;;;;;;2.03;1.67;;;26.60;97.20;;;;;;1760400;28;20192;-74
2022/09/04 10:34:56;;;;;;;1.90;1.80;;;26.60;97.20;;;;;;1761087;28;20196;-74
2022/09/04 10:35:59;;;;;;;2.33;1.65;;;26.60;97.20;;;;;;1760289;28;20200;-75
2022/09/04 10:37:06;;;;;;;1.65;1.55;;;26.50;97.20;;;;;;1760656;28;20613;-74
2022/09/04 10:38:12;;;;;;;1.98;1.42;;;26.50;97.20;;;;;;1761624;28;20204;-74
2022/09/04 10:40:43;;;;;;;1.77;1.67;;;26.40;97.20;;;;;;1760574;28;20228;-74
2022/09/04 10:41:56;;;;;;;2.42;1.65;;;26.40;97.20;;;;;;1761805;28;20197;-74
2022/09/04 10:43:08;;;;;;;2.35;1.90;;;26.40;97.20;;;;;;1760306;28;20242;-74
2022/09/04 10:44:42;;;;;;;1.48;1.38;;;26.30;97.20;;;;;;1761820;28;20289;-74
2022/09/04 10:45:37;;;;;;;2.40;2.03;;;26.20;97.20;;;;;;1761282;28;20205;-75
2022/09/04 10:46:35;;;;;;;1.50;1.40;;;26.20;97.20;;;;;;1761832;28;20223;-74
2022/09/04 10:48:11;;;;;;;2.28;1.70;;;26.10;97.20;;;;;;1761671;28;20208;-74
2022/09/04 10:49:29;;;;;;;1.45;1.35;;;26.10;97.20;;;;;;1759135;28;20200;-74
2022/09/04 10:50:26;;;;;;;1.70;1.60;;;26.00;97.20;;;;;;1761575;28;20189;-74
2022/09/04 10:51:35;;;;;;;1.75;1.50;;;25.90;97.20;;;;;;1761726;28;20197;-74
2022/09/04 10:52:53;;;;;;;1.65;1.55;;;25.90;97.20;;;;;;1759843;28;20204;-75
2022/09/04 10:54:33;;;;;;;1.92;1.40;;;25.90;97.20;;;;;;1761525;28;20202;-75
2022/09/04 10:55:42;;;;;;;1.80;1.70;;;26.00;97.20;;;;;;1756900;28;20208;-75
2022/09/04 10:56:40;;;;;;;1.60;1.40;;;26.10;97.20;;;;;;1758863;28;20224;-75
2022/09/04 10:57:48;;;;;;;1.70;1.60;;;26.10;97.20;;;;;;1760932;28;20572;-75
2022/09/04 10:59:09;;;;;;;2.00;1.70;;;26.10;97.20;;;;;;1760029;28;20205;-75
2022/09/04 11:00:05;;;;;;;1.80;1.70;;;26.00;97.20;;;;;;1758608;28;20218;-75
2022/09/04 11:01:28;;;;;;;2.75;2.00;;;26.10;97.20;;;;;;1761106;28;20429;-75
2022/09/04 11:03:02;;;;;;;3.38;2.33;;;26.10;97.20;;;;;;1755497;28;20286;-75
2022/09/04 11:04:14;;;;;;;2.22;2.13;;;26.10;97.20;;;;;;1745567;28;20194;-74
2022/09/04 11:05:31;;;;;;;3.85;2.00;;;26.20;97.20;;;;;;1758138;28;20197;-75
2022/09/04 11:06:37;;;;;;;2.17;2.05;;;26.20;97.20;;;;;;1754657;28;20278;-75
2022/09/04 11:07:51;;;;;;;2.38;2.17;;;26.20;97.20;;;;;;1754584;28;20575;-75